Slingerlands, NY (12159)

4:09 AM EDT on July 31, 2016 (GMT -0400)
Slingerlands - Delmar | | Change Station

Elev 256 ft 42.62 °N, 73.86 °W | Updated 4 seconds ago

Light Rain
Light Rain
65.5 °F
Feels Like 65.5 °F
N
0.0
Wind Variable Wind from WSW
Gusts 0.0 mph

Today
High -- | Low -- °F
--% Chance of Precip.
Yesterday
High -- | Low -- °F
Precip. -- in
Pressure 30.04 in
Visibility 9.0 miles
Clouds Mostly Cloudy 6000 ft
Mostly Cloudy 8000 ft
Overcast 11000 ft
Dew Point 65 °F
Humidity 98%
Rainfall 0.18 in
Snow Depth Not available.
5:46 AM 8:16 PM
Waning Crescent, 8% visible
METAR KALB 310751Z 34005KT 9SM -RA BKN060 BKN080 OVC110 19/17 A3004 RMK AO2 SLP170 P0004 T01890167
Pressure 30.04 in
Visibility 9.0 miles
Clouds Mostly Cloudy 6000 ft
Mostly Cloudy 8000 ft
Overcast 11000 ft
Dew Point 65 °F
Humidity 98%
Rainfall 0.18 in
Snow Depth Not available.
5:46 AM 8:16 PM
Waning Crescent, 8% visible
METAR KALB 310751Z 34005KT 9SM -RA BKN060 BKN080 OVC110 19/17 A3004 RMK AO2 SLP170 P0004 T01890167

10-Day Weather Forecast

Almanac

Astronomy

Jul. 31, 2016 Rise Set
Actual Time
Civil Twilight
Nautical Twilight
Astronomical Twilight
Moon
Length of Visible Light
Length of Day
Tomorrow will be .
, % of the Moon is Illuminated

Today's Extremes

State Highs State Lows

Community

WunderPhotos

Upload Photos

1,928,768 photos uploaded!

WunderBlog® & News

Nearby

Air Quality

  Air Quality AQ Index Pollutant
Not available.

Snow Depth

Station Depth Elevation

Earthquake Activity

City Distance Mag. Time & Date
Minimum magnitude displayed is 2.5.

Coastal Water Temperatures

Place Temperature

Stations

Nearby Weather Stations

Station Location Temp. Windchill Dew Point Humidity Wind Precip. Elev Updated Type
                   

Watches & Warnings

There are currently no watches in effect.